DAL5671 KLGA-KCMH
Flight info
| Callsign | DAL5671 |
|---|---|
| Flight time | 1h 20m |
| Altitude | 36000 |
| Route | ZIMMZ Q42 MIKYG Q480 AIR CLPRR3 |
| Aircraft | A20N/M-SDE2E3FGHIRWXY/LB1 |
Departure
| Time | 2026-05-08 23:42 |
|---|---|
| Airport | LaGuardia Airport (KLGA) |
Arrival
| Time | 2026-05-09 01:03 |
|---|---|
| Airport | John Glenn Columbus International Airport (KCMH) |
| Time | Latitude | Longitude | Altitude | Speed | Heading |
|---|---|---|---|---|---|
| 2026-05-08 23:07 | 40.77308 | -73.86934 | 17 ft | 0 kts | 48° |
| 2026-05-08 23:28 | 40.77307 | -73.86935 | 17 ft | 1 kts | 48° |
| 2026-05-08 23:28 | 40.77302 | -73.86943 | 19 ft | 1 kts | 48° |
| 2026-05-08 23:28 | 40.77296 | -73.86950 | 17 ft | 1 kts | 55° |
| 2026-05-08 23:28 | 40.77292 | -73.86959 | 17 ft | 1 kts | 70° |
| 2026-05-08 23:29 | 40.77290 | -73.86969 | 17 ft | 1 kts | 86° |
| 2026-05-08 23:29 | 40.77289 | -73.86979 | 17 ft | 1 kts | 102° |
| 2026-05-08 23:29 | 40.77291 | -73.86989 | 18 ft | 1 kts | 117° |
| 2026-05-08 23:29 | 40.77294 | -73.86996 | 19 ft | 0 kts | 132° |
| 2026-05-08 23:34 | 40.77290 | -73.86991 | 18 ft | 3 kts | 132° |
| 2026-05-08 23:34 | 40.77257 | -73.86934 | 18 ft | 11 kts | 125° |
| 2026-05-08 23:34 | 40.77216 | -73.86848 | 16 ft | 13 kts | 120° |
| 2026-05-08 23:35 | 40.77210 | -73.86756 | 17 ft | 9 kts | 43° |
| 2026-05-08 23:35 | 40.77254 | -73.86695 | 18 ft | 10 kts | 46° |
| 2026-05-08 23:35 | 40.77297 | -73.86642 | 17 ft | 5 kts | 41° |
| 2026-05-08 23:35 | 40.77340 | -73.86592 | 15 ft | 11 kts | 42° |
| 2026-05-08 23:36 | 40.77389 | -73.86524 | 14 ft | 8 kts | 68° |
| 2026-05-08 23:36 | 40.77368 | -73.86446 | 14 ft | 11 kts | 120° |
| 2026-05-08 23:36 | 40.77322 | -73.86344 | 15 ft | 14 kts | 120° |
| 2026-05-08 23:36 | 40.77265 | -73.86227 | 18 ft | 15 kts | 122° |
| 2026-05-08 23:37 | 40.77230 | -73.86153 | 18 ft | 5 kts | 121° |
| 2026-05-08 23:37 | 40.77212 | -73.86118 | 17 ft | 4 kts | 121° |
| 2026-05-08 23:37 | 40.77187 | -73.86065 | 17 ft | 10 kts | 122° |
| 2026-05-08 23:37 | 40.77160 | -73.86008 | 16 ft | 2 kts | 122° |
| 2026-05-08 23:38 | 40.77142 | -73.85971 | 17 ft | 8 kts | 122° |
| 2026-05-08 23:38 | 40.77116 | -73.85915 | 16 ft | 0 kts | 120° |
| 2026-05-08 23:39 | 40.77121 | -73.85860 | 17 ft | 13 kts | 64° |
| 2026-05-08 23:39 | 40.77152 | -73.85800 | 16 ft | 2 kts | 49° |
| 2026-05-08 23:39 | 40.77153 | -73.85800 | 16 ft | 0 kts | 49° |
| 2026-05-08 23:41 | 40.77185 | -73.85772 | 17 ft | 12 kts | 24° |
| 2026-05-08 23:41 | 40.77271 | -73.85850 | 18 ft | 25 kts | 306° |
| 2026-05-08 23:41 | 40.77483 | -73.86286 | 17 ft | 91 kts | 302° |
| 2026-05-08 23:42 | 40.77923 | -73.87211 | 25 ft | 146 kts | 302° |
| 2026-05-08 23:42 | 40.78459 | -73.88385 | 588 ft | 145 kts | 303° |
| 2026-05-08 23:42 | 40.78969 | -73.89510 | 1311 ft | 139 kts | 301° |
| 2026-05-08 23:42 | 40.79601 | -73.90502 | 1951 ft | 150 kts | 329° |
| 2026-05-08 23:43 | 40.80663 | -73.90888 | 2540 ft | 171 kts | 347° |
| 2026-05-08 23:43 | 40.81908 | -73.91166 | 3160 ft | 191 kts | 347° |
| 2026-05-08 23:43 | 40.83294 | -73.91461 | 3751 ft | 211 kts | 347° |
| 2026-05-08 23:43 | 40.84806 | -73.91761 | 4307 ft | 233 kts | 347° |
| 2026-05-08 23:44 | 40.86490 | -73.92088 | 4944 ft | 256 kts | 347° |
| 2026-05-08 23:44 | 40.88304 | -73.92422 | 5805 ft | 266 kts | 347° |
| 2026-05-08 23:44 | 40.90161 | -73.92743 | 6889 ft | 268 kts | 345° |
| 2026-05-08 23:44 | 40.91841 | -73.93627 | 7958 ft | 256 kts | 319° |
| 2026-05-08 23:45 | 40.92971 | -73.95368 | 9017 ft | 247 kts | 292° |
| 2026-05-08 23:45 | 40.93300 | -73.97530 | 10115 ft | 244 kts | 267° |
| 2026-05-08 23:45 | 40.92929 | -73.99794 | 10835 ft | 262 kts | 258° |
| 2026-05-08 23:45 | 40.92405 | -74.02192 | 11259 ft | 284 kts | 257° |
| 2026-05-08 23:46 | 40.91953 | -74.04797 | 11853 ft | 294 kts | 264° |
| 2026-05-08 23:46 | 40.91663 | -74.07479 | 12843 ft | 295 kts | 266° |
| 2026-05-08 23:46 | 40.91390 | -74.10170 | 13844 ft | 295 kts | 266° |
| 2026-05-08 23:46 | 40.91118 | -74.12869 | 14591 ft | 301 kts | 266° |
| 2026-05-08 23:47 | 40.90836 | -74.15649 | 15318 ft | 307 kts | 266° |
| 2026-05-08 23:47 | 40.90544 | -74.18483 | 16062 ft | 313 kts | 266° |
| 2026-05-08 23:47 | 40.90243 | -74.21360 | 16728 ft | 319 kts | 266° |
| 2026-05-08 23:47 | 40.89935 | -74.24291 | 17208 ft | 324 kts | 266° |
| 2026-05-08 23:48 | 40.89624 | -74.27230 | 17987 ft | 327 kts | 266° |
| 2026-05-08 23:48 | 40.89306 | -74.30236 | 18680 ft | 331 kts | 266° |
| 2026-05-08 23:48 | 40.88987 | -74.33232 | 19448 ft | 331 kts | 266° |
| 2026-05-08 23:48 | 40.88665 | -74.36255 | 20203 ft | 332 kts | 266° |
| 2026-05-08 23:49 | 40.88341 | -74.39292 | 20916 ft | 334 kts | 266° |
| 2026-05-08 23:49 | 40.88015 | -74.42343 | 21614 ft | 337 kts | 266° |
| 2026-05-08 23:49 | 40.87690 | -74.45417 | 22347 ft | 338 kts | 266° |
| 2026-05-08 23:49 | 40.87359 | -74.48513 | 23040 ft | 340 kts | 266° |
| 2026-05-08 23:50 | 40.87025 | -74.51589 | 23693 ft | 342 kts | 266° |
| 2026-05-08 23:50 | 40.86684 | -74.54714 | 24306 ft | 343 kts | 266° |
| 2026-05-08 23:50 | 40.86344 | -74.57844 | 24893 ft | 344 kts | 266° |
| 2026-05-08 23:50 | 40.86006 | -74.60957 | 25449 ft | 345 kts | 265° |
| 2026-05-08 23:51 | 40.85661 | -74.64124 | 26018 ft | 347 kts | 265° |
| 2026-05-08 23:51 | 40.85316 | -74.67290 | 26552 ft | 349 kts | 265° |
| 2026-05-08 23:51 | 40.84973 | -74.70430 | 27097 ft | 350 kts | 265° |
| 2026-05-08 23:51 | 40.84623 | -74.73625 | 27574 ft | 351 kts | 265° |
| 2026-05-08 23:52 | 40.84268 | -74.76854 | 28094 ft | 353 kts | 265° |
| 2026-05-08 23:52 | 40.83918 | -74.80033 | 28571 ft | 354 kts | 265° |
| 2026-05-08 23:52 | 40.83561 | -74.83267 | 29050 ft | 356 kts | 265° |
| 2026-05-08 23:52 | 40.83203 | -74.86507 | 29502 ft | 357 kts | 265° |
| 2026-05-08 23:53 | 40.82846 | -74.89726 | 29942 ft | 359 kts | 265° |
| 2026-05-08 23:53 | 40.82482 | -74.93001 | 30318 ft | 361 kts | 264° |
| 2026-05-08 23:53 | 40.82114 | -74.96296 | 30752 ft | 361 kts | 265° |
| 2026-05-08 23:53 | 40.81745 | -74.99589 | 31188 ft | 361 kts | 265° |
| 2026-05-08 23:54 | 40.81377 | -75.02866 | 31737 ft | 358 kts | 265° |
| 2026-05-08 23:54 | 40.81016 | -75.06070 | 32309 ft | 354 kts | 265° |
| 2026-05-08 23:54 | 40.80654 | -75.09270 | 32919 ft | 349 kts | 265° |
| 2026-05-08 23:55 | 40.79905 | -75.15523 | 33995 ft | 343 kts | 263° |
| 2026-05-08 23:55 | 40.79448 | -75.18628 | 34328 ft | 343 kts | 263° |
| 2026-05-08 23:55 | 40.78983 | -75.21694 | 34569 ft | 345 kts | 263° |
| 2026-05-08 23:55 | 40.78514 | -75.24815 | 34831 ft | 346 kts | 263° |
| 2026-05-08 23:56 | 40.78049 | -75.27944 | 35109 ft | 346 kts | 263° |
| 2026-05-08 23:56 | 40.77595 | -75.31028 | 35371 ft | 347 kts | 263° |
| 2026-05-08 23:56 | 40.77111 | -75.34177 | 35627 ft | 349 kts | 261° |
| 2026-05-08 23:56 | 40.76471 | -75.37280 | 35857 ft | 352 kts | 257° |
| 2026-05-08 23:57 | 40.75655 | -75.40344 | 35942 ft | 354 kts | 254° |
| 2026-05-08 23:57 | 40.73584 | -75.46207 | 35936 ft | 356 kts | 251° |
| 2026-05-08 23:58 | 40.71396 | -75.52055 | 35932 ft | 355 kts | 251° |
| 2026-05-08 23:58 | 40.69207 | -75.57914 | 35935 ft | 354 kts | 251° |
| 2026-05-08 23:59 | 40.67033 | -75.63720 | 35940 ft | 354 kts | 251° |
| 2026-05-08 23:59 | 40.64859 | -75.69508 | 35943 ft | 353 kts | 251° |
| 2026-05-09 00:00 | 40.62675 | -75.75314 | 35942 ft | 353 kts | 251° |
| 2026-05-09 00:00 | 40.60503 | -75.81074 | 35940 ft | 352 kts | 251° |
| 2026-05-09 00:01 | 40.58313 | -75.86857 | 35934 ft | 351 kts | 251° |
| 2026-05-09 00:01 | 40.56127 | -75.92606 | 35941 ft | 351 kts | 251° |
| 2026-05-09 00:02 | 40.53951 | -75.98322 | 35939 ft | 350 kts | 251° |
| 2026-05-09 00:02 | 40.51776 | -76.04024 | 35939 ft | 350 kts | 251° |
| 2026-05-09 00:03 | 40.49589 | -76.09744 | 35939 ft | 349 kts | 251° |
| 2026-05-09 00:03 | 40.47413 | -76.15427 | 35939 ft | 349 kts | 251° |
| 2026-05-09 00:04 | 40.45227 | -76.21124 | 35933 ft | 348 kts | 251° |
| 2026-05-09 00:04 | 40.43053 | -76.26778 | 35922 ft | 348 kts | 251° |
| 2026-05-09 00:05 | 40.40870 | -76.32448 | 35918 ft | 347 kts | 251° |
| 2026-05-09 00:05 | 40.38689 | -76.38099 | 35928 ft | 347 kts | 251° |
| 2026-05-09 00:06 | 40.36216 | -76.44495 | 35931 ft | 346 kts | 251° |
| 2026-05-09 00:06 | 40.31822 | -76.55678 | 35920 ft | 346 kts | 250° |
| 2026-05-09 00:07 | 40.27338 | -76.66836 | 35937 ft | 345 kts | 250° |
| 2026-05-09 00:07 | 40.23844 | -76.75533 | 35938 ft | 344 kts | 250° |
| 2026-05-09 00:08 | 40.21608 | -76.81085 | 35942 ft | 344 kts | 250° |
| 2026-05-09 00:08 | 40.17835 | -76.90427 | 35942 ft | 343 kts | 250° |
| 2026-05-09 00:09 | 40.13634 | -77.00799 | 35935 ft | 343 kts | 250° |
| 2026-05-09 00:09 | 40.11392 | -77.06316 | 35934 ft | 343 kts | 250° |
| 2026-05-09 00:10 | 40.09164 | -77.11795 | 35932 ft | 343 kts | 250° |
| 2026-05-09 00:10 | 40.06911 | -77.17320 | 35942 ft | 344 kts | 250° |
| 2026-05-09 00:11 | 40.04664 | -77.22822 | 35935 ft | 344 kts | 250° |
| 2026-05-09 00:11 | 40.02413 | -77.28321 | 35952 ft | 345 kts | 250° |
| 2026-05-09 00:12 | 40.00144 | -77.33853 | 35958 ft | 345 kts | 250° |
| 2026-05-09 00:12 | 39.97905 | -77.39365 | 35960 ft | 343 kts | 252° |
| 2026-05-09 00:13 | 39.96353 | -77.45137 | 35961 ft | 336 kts | 262° |
| 2026-05-09 00:13 | 39.95792 | -77.51138 | 35963 ft | 332 kts | 270° |
| 2026-05-09 00:14 | 39.95966 | -77.57165 | 35963 ft | 332 kts | 272° |
| 2026-05-09 00:14 | 39.96157 | -77.63178 | 35963 ft | 332 kts | 272° |
| 2026-05-09 00:15 | 39.96339 | -77.69154 | 35960 ft | 331 kts | 272° |
| 2026-05-09 00:15 | 39.96521 | -77.75162 | 35960 ft | 331 kts | 272° |
| 2026-05-09 00:16 | 39.96699 | -77.81120 | 35958 ft | 330 kts | 272° |
| 2026-05-09 00:16 | 39.96876 | -77.87123 | 35962 ft | 331 kts | 272° |
| 2026-05-09 00:17 | 39.97049 | -77.93107 | 35968 ft | 330 kts | 272° |
| 2026-05-09 00:17 | 39.97218 | -77.99112 | 35960 ft | 330 kts | 272° |
| 2026-05-09 00:18 | 39.97356 | -78.04098 | 35956 ft | 330 kts | 272° |
| 2026-05-09 00:18 | 39.97547 | -78.11030 | 35605 ft | 327 kts | 272° |
| 2026-05-09 00:18 | 39.97599 | -78.12992 | 35251 ft | 326 kts | 272° |
| 2026-05-09 00:19 | 39.97679 | -78.15971 | 34486 ft | 329 kts | 272° |
| 2026-05-09 00:19 | 39.97758 | -78.18950 | 33844 ft | 328 kts | 272° |
| 2026-05-09 00:19 | 39.97836 | -78.21912 | 32918 ft | 331 kts | 272° |
| 2026-05-09 00:19 | 39.97916 | -78.24958 | 31745 ft | 341 kts | 272° |
| 2026-05-09 00:20 | 39.97997 | -78.28099 | 30795 ft | 349 kts | 272° |
| 2026-05-09 00:20 | 39.98078 | -78.31287 | 30319 ft | 352 kts | 272° |
| 2026-05-09 00:20 | 39.98157 | -78.34440 | 30086 ft | 350 kts | 272° |
| 2026-05-09 00:20 | 39.98237 | -78.37617 | 29956 ft | 350 kts | 272° |
| 2026-05-09 00:21 | 39.98315 | -78.40806 | 29938 ft | 350 kts | 272° |
| 2026-05-09 00:21 | 39.98461 | -78.46870 | 29941 ft | 351 kts | 272° |
| 2026-05-09 00:22 | 39.98613 | -78.53257 | 29941 ft | 351 kts | 272° |
| 2026-05-09 00:22 | 39.98759 | -78.59591 | 29946 ft | 351 kts | 272° |
| 2026-05-09 00:23 | 39.98902 | -78.65976 | 29945 ft | 352 kts | 272° |
| 2026-05-09 00:23 | 39.99044 | -78.72356 | 29949 ft | 351 kts | 272° |
| 2026-05-09 00:24 | 39.99181 | -78.78714 | 29951 ft | 353 kts | 272° |
| 2026-05-09 00:24 | 39.99314 | -78.85111 | 29949 ft | 352 kts | 272° |
| 2026-05-09 00:25 | 39.99445 | -78.91525 | 29772 ft | 352 kts | 272° |
| 2026-05-09 00:25 | 39.99508 | -78.94685 | 29494 ft | 351 kts | 272° |
| 2026-05-09 00:25 | 39.99570 | -78.97863 | 29209 ft | 348 kts | 272° |
| 2026-05-09 00:25 | 39.99631 | -79.01019 | 28930 ft | 348 kts | 272° |
| 2026-05-09 00:26 | 39.99692 | -79.04192 | 28661 ft | 347 kts | 272° |
| 2026-05-09 00:26 | 39.99751 | -79.07338 | 28382 ft | 346 kts | 272° |
| 2026-05-09 00:26 | 39.99809 | -79.10433 | 28116 ft | 345 kts | 272° |
| 2026-05-09 00:26 | 39.99866 | -79.13560 | 27847 ft | 344 kts | 271° |
| 2026-05-09 00:27 | 39.99923 | -79.16688 | 27582 ft | 343 kts | 272° |
| 2026-05-09 00:27 | 39.99978 | -79.19814 | 27316 ft | 343 kts | 272° |
| 2026-05-09 00:27 | 40.00032 | -79.22883 | 27058 ft | 342 kts | 272° |
| 2026-05-09 00:27 | 40.00086 | -79.25991 | 26794 ft | 341 kts | 272° |
| 2026-05-09 00:28 | 40.00139 | -79.29088 | 26539 ft | 340 kts | 271° |
| 2026-05-09 00:28 | 40.00190 | -79.32140 | 26284 ft | 339 kts | 271° |
| 2026-05-09 00:28 | 40.00240 | -79.35220 | 26033 ft | 339 kts | 271° |
| 2026-05-09 00:28 | 40.00290 | -79.38302 | 25785 ft | 338 kts | 271° |
| 2026-05-09 00:29 | 40.00340 | -79.41370 | 25535 ft | 337 kts | 271° |
| 2026-05-09 00:29 | 40.00387 | -79.44392 | 25292 ft | 337 kts | 271° |
| 2026-05-09 00:29 | 40.00433 | -79.47447 | 25052 ft | 337 kts | 271° |
| 2026-05-09 00:29 | 40.00479 | -79.50513 | 24803 ft | 336 kts | 271° |
| 2026-05-09 00:30 | 40.00525 | -79.53575 | 24566 ft | 336 kts | 271° |
| 2026-05-09 00:30 | 40.00569 | -79.56599 | 24334 ft | 335 kts | 271° |
| 2026-05-09 00:30 | 40.00613 | -79.59643 | 24097 ft | 334 kts | 271° |
| 2026-05-09 00:30 | 40.00655 | -79.62636 | 23975 ft | 333 kts | 271° |
| 2026-05-09 00:31 | 40.00697 | -79.65670 | 23944 ft | 335 kts | 271° |
| 2026-05-09 00:31 | 40.00739 | -79.68718 | 23942 ft | 335 kts | 271° |
| 2026-05-09 00:31 | 40.00779 | -79.71766 | 23941 ft | 335 kts | 271° |
| 2026-05-09 00:31 | 40.00819 | -79.74800 | 23943 ft | 335 kts | 271° |
| 2026-05-09 00:32 | 40.00857 | -79.77801 | 23846 ft | 335 kts | 271° |
| 2026-05-09 00:32 | 40.00895 | -79.80846 | 23614 ft | 335 kts | 271° |
| 2026-05-09 00:32 | 40.00932 | -79.83902 | 23360 ft | 334 kts | 271° |
| 2026-05-09 00:32 | 40.00966 | -79.86770 | 23092 ft | 333 kts | 271° |
| 2026-05-09 00:33 | 40.01001 | -79.89777 | 22959 ft | 331 kts | 271° |
| 2026-05-09 00:33 | 40.01036 | -79.92790 | 22952 ft | 332 kts | 271° |
| 2026-05-09 00:33 | 40.01070 | -79.95821 | 22937 ft | 333 kts | 271° |
| 2026-05-09 00:33 | 40.01103 | -79.98842 | 22941 ft | 333 kts | 271° |
| 2026-05-09 00:34 | 40.01135 | -80.01866 | 22944 ft | 333 kts | 271° |
| 2026-05-09 00:34 | 40.01166 | -80.04873 | 22950 ft | 333 kts | 271° |
| 2026-05-09 00:34 | 40.01197 | -80.07897 | 22954 ft | 332 kts | 271° |
| 2026-05-09 00:34 | 40.01226 | -80.10912 | 22957 ft | 332 kts | 271° |
| 2026-05-09 00:35 | 40.01255 | -80.13898 | 22954 ft | 333 kts | 271° |
| 2026-05-09 00:35 | 40.01284 | -80.16918 | 22954 ft | 333 kts | 271° |
| 2026-05-09 00:35 | 40.01311 | -80.19949 | 22935 ft | 333 kts | 271° |
| 2026-05-09 00:35 | 40.01338 | -80.22969 | 22950 ft | 333 kts | 271° |
| 2026-05-09 00:36 | 40.01364 | -80.25992 | 22951 ft | 333 kts | 271° |
| 2026-05-09 00:36 | 40.01390 | -80.28986 | 22942 ft | 333 kts | 271° |
| 2026-05-09 00:36 | 40.01414 | -80.32028 | 22938 ft | 333 kts | 271° |
| 2026-05-09 00:36 | 40.01437 | -80.35044 | 22950 ft | 333 kts | 271° |
| 2026-05-09 00:37 | 40.01461 | -80.38082 | 22944 ft | 333 kts | 271° |
| 2026-05-09 00:37 | 40.01483 | -80.41074 | 22937 ft | 333 kts | 271° |
| 2026-05-09 00:37 | 40.01504 | -80.44102 | 22940 ft | 333 kts | 271° |
| 2026-05-09 00:37 | 40.01524 | -80.47138 | 22928 ft | 333 kts | 271° |
| 2026-05-09 00:38 | 40.01544 | -80.50131 | 22925 ft | 333 kts | 271° |
| 2026-05-09 00:38 | 40.01563 | -80.53146 | 22906 ft | 333 kts | 271° |
| 2026-05-09 00:38 | 40.01581 | -80.56187 | 22908 ft | 337 kts | 271° |
| 2026-05-09 00:38 | 40.01599 | -80.59293 | 22904 ft | 342 kts | 271° |
| 2026-05-09 00:39 | 40.01616 | -80.62405 | 22920 ft | 342 kts | 271° |
| 2026-05-09 00:39 | 40.01632 | -80.65476 | 22901 ft | 342 kts | 271° |
| 2026-05-09 00:39 | 40.01647 | -80.68585 | 22690 ft | 342 kts | 271° |
| 2026-05-09 00:39 | 40.01662 | -80.71645 | 22428 ft | 340 kts | 271° |
| 2026-05-09 00:40 | 40.01676 | -80.74720 | 22159 ft | 339 kts | 271° |
| 2026-05-09 00:40 | 40.01676 | -80.77799 | 21900 ft | 339 kts | 269° |
| 2026-05-09 00:40 | 40.01464 | -80.80865 | 21637 ft | 339 kts | 263° |
| 2026-05-09 00:41 | 40.00226 | -80.86786 | 21133 ft | 339 kts | 252° |
| 2026-05-09 00:41 | 39.99366 | -80.89660 | 20872 ft | 338 kts | 252° |
| 2026-05-09 00:41 | 39.98533 | -80.92490 | 20627 ft | 338 kts | 253° |
| 2026-05-09 00:41 | 39.97692 | -80.95362 | 20375 ft | 338 kts | 253° |
| 2026-05-09 00:42 | 39.96853 | -80.98219 | 20127 ft | 337 kts | 253° |
| 2026-05-09 00:42 | 39.96021 | -81.01048 | 19880 ft | 336 kts | 252° |
| 2026-05-09 00:42 | 39.95177 | -81.03911 | 19633 ft | 335 kts | 252° |
| 2026-05-09 00:42 | 39.94345 | -81.06727 | 19393 ft | 335 kts | 252° |
| 2026-05-09 00:43 | 39.93503 | -81.09578 | 19149 ft | 334 kts | 252° |
| 2026-05-09 00:43 | 39.92676 | -81.12370 | 18915 ft | 334 kts | 252° |
| 2026-05-09 00:43 | 39.91839 | -81.15195 | 18678 ft | 333 kts | 252° |
| 2026-05-09 00:43 | 39.91000 | -81.18025 | 18443 ft | 333 kts | 252° |
| 2026-05-09 00:44 | 39.90170 | -81.20819 | 18200 ft | 332 kts | 252° |
| 2026-05-09 00:44 | 39.89336 | -81.23627 | 17935 ft | 332 kts | 252° |
| 2026-05-09 00:44 | 39.88501 | -81.26431 | 17667 ft | 331 kts | 252° |
| 2026-05-09 00:44 | 39.87677 | -81.29199 | 17401 ft | 330 kts | 252° |
| 2026-05-09 00:45 | 39.86847 | -81.31981 | 17136 ft | 329 kts | 252° |
| 2026-05-09 00:45 | 39.86018 | -81.34761 | 16874 ft | 328 kts | 252° |
| 2026-05-09 00:45 | 39.85191 | -81.37526 | 16615 ft | 326 kts | 252° |
| 2026-05-09 00:45 | 39.84363 | -81.40298 | 16354 ft | 327 kts | 252° |
| 2026-05-09 00:46 | 39.83547 | -81.43022 | 16104 ft | 326 kts | 252° |
| 2026-05-09 00:46 | 39.82722 | -81.45773 | 15848 ft | 325 kts | 252° |
| 2026-05-09 00:46 | 39.81907 | -81.48491 | 15597 ft | 324 kts | 251° |
| 2026-05-09 00:46 | 39.81085 | -81.51227 | 15350 ft | 323 kts | 251° |
| 2026-05-09 00:47 | 39.80267 | -81.53948 | 15100 ft | 322 kts | 251° |
| 2026-05-09 00:47 | 39.79449 | -81.56666 | 14851 ft | 322 kts | 251° |
| 2026-05-09 00:47 | 39.78632 | -81.59381 | 14602 ft | 322 kts | 251° |
| 2026-05-09 00:47 | 39.77823 | -81.62064 | 14371 ft | 320 kts | 251° |
| 2026-05-09 00:48 | 39.77010 | -81.64756 | 14127 ft | 318 kts | 251° |
| 2026-05-09 00:48 | 39.76203 | -81.67430 | 13880 ft | 318 kts | 251° |
| 2026-05-09 00:48 | 39.75391 | -81.70116 | 13637 ft | 316 kts | 251° |
| 2026-05-09 00:48 | 39.74597 | -81.72741 | 13376 ft | 315 kts | 251° |
| 2026-05-09 00:49 | 39.73794 | -81.75394 | 13100 ft | 315 kts | 251° |
| 2026-05-09 00:49 | 39.72992 | -81.78042 | 12824 ft | 314 kts | 251° |
| 2026-05-09 00:49 | 39.72197 | -81.80665 | 12574 ft | 314 kts | 250° |
| 2026-05-09 00:49 | 39.71396 | -81.83302 | 12310 ft | 313 kts | 250° |
| 2026-05-09 00:50 | 39.70596 | -81.85937 | 12044 ft | 312 kts | 250° |
| 2026-05-09 00:50 | 39.69795 | -81.88566 | 11784 ft | 312 kts | 250° |
| 2026-05-09 00:50 | 39.69004 | -81.91164 | 11544 ft | 311 kts | 250° |
| 2026-05-09 00:50 | 39.68205 | -81.93786 | 11295 ft | 310 kts | 249° |
| 2026-05-09 00:51 | 39.67411 | -81.96388 | 11059 ft | 309 kts | 249° |
| 2026-05-09 00:51 | 39.66617 | -81.98982 | 11008 ft | 309 kts | 249° |
| 2026-05-09 00:51 | 39.65833 | -82.01544 | 11005 ft | 309 kts | 249° |
| 2026-05-09 00:51 | 39.65037 | -82.04140 | 11005 ft | 309 kts | 249° |
| 2026-05-09 00:52 | 39.64239 | -82.06744 | 11009 ft | 310 kts | 249° |
| 2026-05-09 00:52 | 39.63457 | -82.09366 | 10992 ft | 309 kts | 253° |
| 2026-05-09 00:52 | 39.63185 | -82.12101 | 10820 ft | 312 kts | 272° |
| 2026-05-09 00:52 | 39.63715 | -82.14829 | 10581 ft | 316 kts | 292° |
| 2026-05-09 00:53 | 39.64930 | -82.17233 | 10344 ft | 320 kts | 302° |
| 2026-05-09 00:53 | 39.66267 | -82.19551 | 10219 ft | 320 kts | 303° |
| 2026-05-09 00:53 | 39.67591 | -82.21848 | 10217 ft | 320 kts | 302° |
| 2026-05-09 00:53 | 39.68922 | -82.24172 | 10215 ft | 321 kts | 302° |
| 2026-05-09 00:54 | 39.70259 | -82.26518 | 10035 ft | 321 kts | 302° |
| 2026-05-09 00:54 | 39.71565 | -82.28817 | 9917 ft | 316 kts | 302° |
| 2026-05-09 00:54 | 39.72851 | -82.31081 | 9805 ft | 303 kts | 302° |
| 2026-05-09 00:54 | 39.74194 | -82.33142 | 9676 ft | 294 kts | 310° |
| 2026-05-09 00:55 | 39.75694 | -82.34835 | 9497 ft | 285 kts | 315° |
| 2026-05-09 00:55 | 39.77223 | -82.36468 | 8993 ft | 283 kts | 315° |
| 2026-05-09 00:55 | 39.78733 | -82.38103 | 8569 ft | 281 kts | 314° |
| 2026-05-09 00:55 | 39.80216 | -82.39713 | 8144 ft | 279 kts | 314° |
| 2026-05-09 00:56 | 39.81709 | -82.41332 | 7723 ft | 278 kts | 314° |
| 2026-05-09 00:56 | 39.83183 | -82.42944 | 7325 ft | 275 kts | 312° |
| 2026-05-09 00:56 | 39.84477 | -82.44742 | 6910 ft | 269 kts | 303° |
| 2026-05-09 00:56 | 39.85614 | -82.46632 | 6511 ft | 266 kts | 302° |
| 2026-05-09 00:57 | 39.86749 | -82.48525 | 6114 ft | 264 kts | 302° |
| 2026-05-09 00:57 | 39.87878 | -82.50412 | 5701 ft | 263 kts | 302° |
| 2026-05-09 00:57 | 39.89002 | -82.52295 | 5307 ft | 262 kts | 302° |
| 2026-05-09 00:57 | 39.90110 | -82.54157 | 4903 ft | 261 kts | 302° |
| 2026-05-09 00:58 | 39.91217 | -82.56030 | 4495 ft | 260 kts | 302° |
| 2026-05-09 00:58 | 39.92310 | -82.57910 | 4125 ft | 258 kts | 302° |
| 2026-05-09 00:58 | 39.93381 | -82.59770 | 4005 ft | 258 kts | 302° |
| 2026-05-09 00:58 | 39.94454 | -82.61650 | 3988 ft | 258 kts | 302° |
| 2026-05-09 00:59 | 39.95505 | -82.63498 | 3950 ft | 255 kts | 302° |
| 2026-05-09 00:59 | 39.96565 | -82.65356 | 3675 ft | 254 kts | 302° |
| 2026-05-09 00:59 | 39.97551 | -82.67247 | 3456 ft | 245 kts | 294° |
| 2026-05-09 00:59 | 39.98084 | -82.69278 | 3350 ft | 229 kts | 278° |
| 2026-05-09 01:00 | 39.98276 | -82.71255 | 3181 ft | 216 kts | 271° |
| 2026-05-09 01:00 | 39.98362 | -82.73202 | 2937 ft | 213 kts | 272° |
| 2026-05-09 01:00 | 39.98473 | -82.75098 | 2664 ft | 205 kts | 272° |
| 2026-05-09 01:00 | 39.98575 | -82.76934 | 2405 ft | 202 kts | 273° |
| 2026-05-09 01:01 | 39.98677 | -82.78734 | 2134 ft | 200 kts | 273° |
| 2026-05-09 01:01 | 39.98779 | -82.80543 | 1865 ft | 199 kts | 273° |
| 2026-05-09 01:01 | 39.98879 | -82.82315 | 1626 ft | 190 kts | 273° |
| 2026-05-09 01:01 | 39.98972 | -82.83960 | 1372 ft | 173 kts | 274° |
| 2026-05-09 01:02 | 39.99054 | -82.85411 | 1142 ft | 150 kts | 274° |
| 2026-05-09 01:02 | 39.99127 | -82.86692 | 947 ft | 137 kts | 273° |
| 2026-05-09 01:02 | 39.99198 | -82.87912 | 829 ft | 127 kts | 273° |
| 2026-05-09 01:02 | 39.99251 | -82.88916 | 817 ft | 85 kts | 274° |
| 2026-05-09 01:03 | 39.99295 | -82.89417 | 815 ft | 27 kts | 294° |
| 2026-05-09 01:03 | 39.99355 | -82.89588 | 817 ft | 9 kts | 303° |
| 2026-05-09 01:03 | 39.99381 | -82.89642 | 819 ft | 7 kts | 302° |
| 2026-05-09 01:03 | 39.99415 | -82.89706 | 818 ft | 10 kts | 306° |
| 2026-05-09 01:04 | 39.99427 | -82.89727 | 812 ft | 0 kts | 306° |
| 2026-05-09 01:04 | 39.99432 | -82.89734 | 814 ft | 0 kts | 322° |
| 2026-05-09 01:04 | 39.99446 | -82.89731 | 818 ft | 5 kts | 10° |
| 2026-05-09 01:04 | 39.99463 | -82.89676 | 818 ft | 11 kts | 78° |
| 2026-05-09 01:05 | 39.99464 | -82.89541 | 820 ft | 17 kts | 94° |
| 2026-05-09 01:05 | 39.99454 | -82.89386 | 819 ft | 18 kts | 95° |
| 2026-05-09 01:05 | 39.99441 | -82.89137 | 819 ft | 15 kts | 94° |
| 2026-05-09 01:06 | 39.99434 | -82.88992 | 819 ft | 16 kts | 93° |
| 2026-05-09 01:06 | 39.99426 | -82.88836 | 819 ft | 18 kts | 94° |
| 2026-05-09 01:06 | 39.99412 | -82.88661 | 817 ft | 21 kts | 97° |
| 2026-05-09 01:06 | 39.99403 | -82.88472 | 819 ft | 18 kts | 92° |
| 2026-05-09 01:07 | 39.99415 | -82.88358 | 817 ft | 12 kts | 53° |
| 2026-05-09 01:07 | 39.99489 | -82.88324 | 819 ft | 13 kts | 8° |
| 2026-05-09 01:07 | 39.99570 | -82.88342 | 816 ft | 10 kts | 314° |
| 2026-05-09 01:07 | 39.99587 | -82.88437 | 816 ft | 12 kts | 274° |
| 2026-05-09 01:08 | 39.99594 | -82.88544 | 818 ft | 8 kts | 292° |
| 2026-05-09 01:08 | 39.99633 | -82.88562 | 816 ft | 6 kts | 9° |
| 2026-05-09 01:08 | 39.99653 | -82.88550 | 820 ft | 1 kts | 25° |
| 2026-05-09 01:08 | 39.99659 | -82.88546 | 820 ft | 0 kts | 25° |